Time;durP1;ratioP1;P1;durP2;ratioP2;P2;SDS_P1;SDS_P2;PMS_P1;PMS_P2;Temp;Humidity;BMP_temperature;BMP_pressure;BME280_temperature;BME280_humidity;BME280_pressure;Samples;Min_cycle;Max_cycle;Signal;HPM_P1;HPM_P2
2022/09/28 00:01:17;;;;;;;4.13;1.90;;;14.10;95.60;;;;;;4935262;29;20973;-76
2022/09/28 00:03:50;;;;;;;2.20;1.43;;;14.00;95.90;;;;;;4933497;29;20494;-76
2022/09/28 00:06:23;;;;;;;1.90;1.70;;;14.00;95.60;;;;;;4933463;29;20855;-76
2022/09/28 00:08:54;;;;;;;2.70;1.60;;;14.00;95.60;;;;;;4916191;29;20440;-76
2022/09/28 00:11:26;;;;;;;2.77;2.00;;;14.00;95.60;;;;;;4917776;29;20936;-76
2022/09/28 00:13:55;;;;;;;2.00;1.50;;;14.00;95.50;;;;;;4933474;29;20463;-77
2022/09/28 00:16:27;;;;;;;2.27;1.60;;;14.00;95.50;;;;;;4933469;29;20469;-77
2022/09/28 00:18:54;;;;;;;3.27;2.00;;;14.00;95.50;;;;;;4917407;29;20443;-76
2022/09/28 00:21:31;;;;;;;2.10;1.90;;;14.00;95.50;;;;;;4934153;29;20430;-76
2022/09/28 00:24:14;;;;;;;1.93;1.73;;;14.00;95.50;;;;;;4916288;29;20557;-76
2022/09/28 00:26:45;;;;;;;1.77;1.63;;;14.00;95.50;;;;;;4917349;29;20490;-77
2022/09/28 00:29:34;;;;;;;2.60;1.60;;;14.00;95.50;;;;;;4917507;29;20433;-76
2022/09/28 00:32:08;;;;;;;1.90;1.60;;;14.00;95.50;;;;;;4917507;29;20428;-77
2022/09/28 00:34:41;;;;;;;1.67;1.57;;;14.00;95.50;;;;;;4932487;29;20524;-76
2022/09/28 00:37:08;;;;;;;1.67;1.57;;;14.00;95.50;;;;;;4938001;29;20980;-77
2022/09/28 00:39:36;;;;;;;1.47;1.37;;;14.00;95.50;;;;;;4937860;29;20506;-76
2022/09/28 00:42:12;;;;;;;2.10;1.60;;;14.00;95.60;;;;;;4921715;29;20990;-76
2022/09/28 00:44:41;;;;;;;1.87;1.73;;;14.00;95.70;;;;;;4936574;29;20419;-76
2022/09/28 00:47:38;;;;;;;1.90;1.50;;;14.00;95.60;;;;;;4921067;29;20454;-77
2022/09/28 00:50:18;;;;;;;1.87;1.70;;;13.90;95.50;;;;;;4936707;29;20427;-76
2022/09/28 00:53:03;;;;;;;4.30;1.97;;;13.90;95.50;;;;;;4905381;29;20477;-76
2022/09/28 00:55:53;;;;;;;1.50;1.40;;;13.90;95.40;;;;;;4937728;29;20805;-76
2022/09/28 00:58:33;;;;;;;2.10;1.80;;;13.90;95.50;;;;;;4920946;29;20404;-77
2022/09/28 01:01:02;;;;;;;1.60;1.40;;;13.90;95.40;;;;;;4937811;29;20416;-76
2022/09/28 01:03:32;;;;;;;2.53;1.60;;;13.90;95.50;;;;;;4937938;29;20443;-76
2022/09/28 01:06:03;;;;;;;2.10;1.67;;;13.90;95.50;;;;;;4920613;29;21025;-77
2022/09/28 01:08:31;;;;;;;1.80;1.60;;;13.90;95.50;;;;;;4920582;29;20399;-76
2022/09/28 01:10:59;;;;;;;1.43;1.33;;;13.90;95.50;;;;;;4936285;29;20429;-75
2022/09/28 01:13:27;;;;;;;2.50;1.80;;;13.90;95.50;;;;;;4920856;29;20498;-77
2022/09/28 01:16:19;;;;;;;2.70;1.73;;;13.90;95.50;;;;;;4936297;29;20535;-77
2022/09/28 01:18:58;;;;;;;1.97;1.73;;;13.90;95.50;;;;;;4935779;29;20468;-77
2022/09/28 01:21:55;;;;;;;1.83;1.73;;;13.90;95.50;;;;;;4902415;29;20491;-76
2022/09/28 01:24:47;;;;;;;2.03;1.70;;;13.90;95.50;;;;;;4899928;29;20531;-76
2022/09/28 01:27:25;;;;;;;1.87;1.60;;;13.90;95.50;;;;;;4935703;29;20459;-78
2022/09/28 01:30:02;;;;;;;1.90;1.70;;;13.90;95.50;;;;;;4936093;29;20423;-76
2022/09/28 01:32:35;;;;;;;3.13;1.87;;;13.90;95.40;;;;;;4904926;29;20506;-77
2022/09/28 01:35:07;;;;;;;2.47;1.70;;;13.90;95.50;;;;;;4935342;29;20462;-77
2022/09/28 01:37:55;;;;;;;2.43;1.80;;;13.90;95.40;;;;;;4905228;29;20430;-77
2022/09/28 01:40:25;;;;;;;2.70;2.03;;;13.90;95.50;;;;;;4935598;29;20478;-76
2022/09/28 01:42:57;;;;;;;1.80;1.70;;;13.90;95.50;;;;;;4931008;29;20439;-76
2022/09/28 01:45:30;;;;;;;2.20;1.90;;;13.80;95.40;;;;;;4926721;29;20802;-77
2022/09/28 01:48:01;;;;;;;2.60;1.90;;;13.80;95.40;;;;;;4935021;29;20462;-77
2022/09/28 01:50:36;;;;;;;4.27;1.60;;;13.80;95.40;;;;;;4935533;29;20428;-77
2022/09/28 01:53:26;;;;;;;2.90;2.03;;;13.80;95.40;;;;;;4919727;29;20462;-78
2022/09/28 01:55:58;;;;;;;2.07;1.87;;;13.80;95.40;;;;;;4920078;29;20503;-77
2022/09/28 01:58:52;;;;;;;3.20;2.17;;;13.80;95.30;;;;;;4919740;29;20427;-78
2022/09/28 02:01:41;;;;;;;2.47;2.13;;;13.80;95.30;;;;;;4941463;28;20526;-77
2022/09/28 02:04:35;;;;;;;2.20;2.00;;;13.80;95.30;;;;;;4934772;29;20450;-77
2022/09/28 02:07:11;;;;;;;2.90;2.50;;;13.80;95.30;;;;;;4919537;29;20483;-77
2022/09/28 02:09:57;;;;;;;3.40;2.80;;;13.80;95.30;;;;;;4919419;29;20439;-77
2022/09/28 02:12:46;;;;;;;4.47;2.33;;;13.80;95.30;;;;;;4935314;29;20447;-76
2022/09/28 02:15:32;;;;;;;2.77;2.50;;;13.80;95.40;;;;;;4915752;29;20467;-77
2022/09/28 02:17:59;;;;;;;4.13;2.30;;;13.80;95.30;;;;;;4904108;29;20455;-77
2022/09/28 02:20:31;;;;;;;2.93;2.47;;;13.80;95.30;;;;;;4919490;29;21072;-77
2022/09/28 02:23:02;;;;;;;2.50;2.30;;;13.80;95.30;;;;;;4934751;29;20443;-77
2022/09/28 02:25:42;;;;;;;2.63;2.37;;;13.80;95.30;;;;;;4934422;29;20480;-76
2022/09/28 02:28:12;;;;;;;4.43;2.50;;;13.80;95.30;;;;;;4919528;29;20422;-76
2022/09/28 02:30:43;;;;;;;2.50;2.30;;;13.80;95.30;;;;;;4919239;29;20426;-77
2022/09/28 02:33:41;;;;;;;2.30;2.07;;;13.70;95.30;;;;;;4904139;29;20434;-78
2022/09/28 02:36:07;;;;;;;3.27;2.57;;;13.80;95.30;;;;;;4901636;29;20474;-77
2022/09/28 02:38:37;;;;;;;2.93;2.63;;;13.70;95.30;;;;;;4919499;29;21078;-76
2022/09/28 02:41:18;;;;;;;3.57;2.53;;;13.70;95.30;;;;;;4934393;29;20455;-76
2022/09/28 02:43:49;;;;;;;3.90;2.30;;;13.70;95.30;;;;;;4934765;29;21198;-76
2022/09/28 02:46:39;;;;;;;2.83;2.27;;;13.70;95.30;;;;;;4898860;29;20527;-77
2022/09/28 02:49:53;;;;;;;4.33;2.80;;;13.70;95.30;;;;;;4919148;29;20446;-77
2022/09/28 02:52:59;;;;;;;3.57;2.63;;;13.70;95.30;;;;;;4903266;29;20446;-77
2022/09/28 02:55:34;;;;;;;5.23;2.53;;;13.70;95.30;;;;;;4903007;29;20458;-76
2022/09/28 02:58:37;;;;;;;3.07;2.80;;;13.70;95.30;;;;;;4935302;29;20441;-76
2022/09/28 03:01:23;;;;;;;2.90;2.60;;;13.70;95.30;;;;;;4918719;29;20439;-77
2022/09/28 03:04:24;;;;;;;2.30;2.10;;;13.70;95.30;;;;;;4934731;29;20514;-77
2022/09/28 03:07:11;;;;;;;2.80;2.57;;;13.70;95.30;;;;;;4926893;29;20944;-77
2022/09/28 03:09:58;;;;;;;2.67;2.47;;;13.70;95.30;;;;;;4934106;29;20462;-76
2022/09/28 03:12:28;;;;;;;3.40;3.07;;;13.70;95.30;;;;;;4918484;29;21147;-76
2022/09/28 03:15:06;;;;;;;2.57;2.10;;;13.60;95.30;;;;;;4919115;29;20427;-76
2022/09/28 03:17:34;;;;;;;3.90;2.67;;;13.70;95.40;;;;;;4902391;29;20425;-76
2022/09/28 03:20:04;;;;;;;3.13;2.60;;;13.70;95.40;;;;;;4902865;29;20498;-76
2022/09/28 03:22:30;;;;;;;4.30;3.13;;;13.60;95.30;;;;;;4930957;29;20515;-77
2022/09/28 03:24:58;;;;;;;3.30;3.00;;;13.60;95.30;;;;;;4915109;29;20538;-77
2022/09/28 03:27:25;;;;;;;3.30;3.00;;;13.60;95.30;;;;;;4934245;29;20416;-77
2022/09/28 03:29:51;;;;;;;2.70;2.50;;;13.60;95.30;;;;;;4902563;29;20467;-78
2022/09/28 03:32:19;;;;;;;3.77;3.07;;;13.60;95.30;;;;;;4918221;29;20419;-77
2022/09/28 03:34:45;;;;;;;4.37;3.50;;;13.70;95.30;;;;;;4935402;29;20865;-76
2022/09/28 03:37:14;;;;;;;3.10;2.80;;;13.60;95.30;;;;;;4934332;29;20887;-77
2022/09/28 03:39:40;;;;;;;2.50;2.30;;;13.60;95.30;;;;;;4902561;29;20578;-76
2022/09/28 03:42:09;;;;;;;3.87;3.03;;;13.60;95.30;;;;;;4934124;29;20444;-76
2022/09/28 03:44:43;;;;;;;3.77;3.10;;;13.60;95.20;;;;;;4903410;29;20441;-78
2022/09/28 03:47:12;;;;;;;3.47;3.10;;;13.60;95.30;;;;;;4918101;29;20484;-77
2022/09/28 03:49:39;;;;;;;3.37;3.00;;;13.60;95.20;;;;;;4914327;29;20510;-76
2022/09/28 03:52:04;;;;;;;3.97;3.67;;;13.60;95.20;;;;;;4918475;29;20510;-77
2022/09/28 03:54:33;;;;;;;3.23;2.97;;;13.60;95.20;;;;;;4898695;29;20530;-76
2022/09/28 03:56:59;;;;;;;4.97;3.20;;;13.60;95.30;;;;;;4914975;29;20444;-77
2022/09/28 03:59:25;;;;;;;7.60;4.60;;;13.60;95.20;;;;;;4931275;29;20504;-76
2022/09/28 04:01:56;;;;;;;5.77;3.00;;;13.60;95.20;;;;;;4918117;29;20454;-76
2022/09/28 04:04:25;;;;;;;3.97;3.57;;;13.60;95.20;;;;;;4933614;29;20430;-76
2022/09/28 04:06:51;;;;;;;4.93;4.20;;;13.60;95.20;;;;;;4918058;29;20522;-76
2022/09/28 04:09:22;;;;;;;3.77;3.47;;;13.60;95.20;;;;;;4917026;29;20462;-77
2022/09/28 04:11:51;;;;;;;4.30;3.90;;;13.60;95.30;;;;;;4937128;29;20418;-78
2022/09/28 04:14:19;;;;;;;5.97;4.13;;;13.60;95.20;;;;;;4937778;29;20400;-77
2022/09/28 04:16:46;;;;;;;4.47;3.87;;;13.60;95.20;;;;;;4937682;29;20455;-77
2022/09/28 04:19:16;;;;;;;4.23;3.57;;;13.60;95.20;;;;;;4921272;29;21035;-78
2022/09/28 04:22:16;;;;;;;6.90;5.00;;;13.60;95.20;;;;;;4927825;29;20448;-78
2022/09/28 04:24:45;;;;;;;4.47;4.03;;;13.60;95.20;;;;;;4921533;29;20424;-77
2022/09/28 04:30:10;;;;;;;4.30;3.90;;;13.60;95.30;;;;;;4920910;29;20439;-76
2022/09/28 04:32:39;;;;;;;5.03;4.50;;;13.50;95.20;;;;;;4921206;29;20518;-76
2022/09/28 04:35:13;;;;;;;4.77;4.33;;;13.50;95.20;;;;;;4921107;29;20462;-77
2022/09/28 04:37:43;;;;;;;4.70;4.30;;;13.50;95.20;;;;;;4937215;29;20422;-77
2022/09/28 04:40:10;;;;;;;6.93;5.00;;;13.50;95.20;;;;;;4904405;29;20464;-77
2022/09/28 04:42:39;;;;;;;5.43;4.47;;;13.50;95.20;;;;;;4936276;29;20430;-76
2022/09/28 04:45:10;;;;;;;6.33;4.30;;;13.50;95.20;;;;;;4905208;29;20447;-76
2022/09/28 04:47:45;;;;;;;5.07;4.63;;;13.50;95.20;;;;;;4935189;29;20524;-77
2022/09/28 04:50:21;;;;;;;5.67;4.77;;;13.50;95.20;;;;;;4919773;29;20428;-77
2022/09/28 04:53:12;;;;;;;4.90;4.50;;;13.60;95.20;;;;;;4922929;29;20424;-78
2022/09/28 04:55:39;;;;;;;5.27;4.77;;;13.50;95.20;;;;;;4936737;29;20450;-76
2022/09/28 04:58:08;;;;;;;6.10;5.10;;;13.50;95.20;;;;;;4921563;29;21008;-77
2022/09/28 05:00:34;;;;;;;4.90;4.50;;;13.50;95.30;;;;;;4920308;29;20439;-77
2022/09/28 05:03:29;;;;;;;4.97;4.57;;;13.50;95.30;;;;;;4922036;29;20601;-77
2022/09/28 05:06:16;;;;;;;5.53;4.80;;;13.50;95.20;;;;;;4920830;29;20487;-76
2022/09/28 05:08:47;;;;;;;5.80;5.30;;;13.50;95.20;;;;;;4920838;29;20456;-77
2022/09/28 05:11:14;;;;;;;5.30;4.80;;;13.50;95.20;;;;;;4920878;29;20426;-76
2022/09/28 05:13:44;;;;;;;5.87;4.97;;;13.50;95.30;;;;;;4936284;29;20424;-77
2022/09/28 05:16:15;;;;;;;5.50;5.00;;;13.50;95.30;;;;;;4936360;29;20436;-78
2022/09/28 05:19:05;;;;;;;5.40;4.90;;;13.50;95.30;;;;;;4936319;29;20416;-78
2022/09/28 05:21:49;;;;;;;6.30;4.53;;;13.50;95.20;;;;;;4935877;29;20774;-78
2022/09/28 05:24:23;;;;;;;5.63;5.13;;;13.50;95.20;;;;;;4920819;29;20425;-77
2022/09/28 05:26:52;;;;;;;5.93;5.33;;;13.50;95.20;;;;;;4920639;29;20480;-77
2022/09/28 05:29:19;;;;;;;5.60;5.10;;;13.50;95.30;;;;;;4920267;29;20429;-78
2022/09/28 05:32:05;;;;;;;6.53;5.00;;;13.50;95.30;;;;;;4936333;29;20428;-77
2022/09/28 05:34:59;;;;;;;4.73;4.33;;;13.50;95.20;;;;;;4916753;29;20558;-77
2022/09/28 05:37:32;;;;;;;5.73;5.23;;;13.50;95.30;;;;;;4917119;29;20426;-77
2022/09/28 05:40:24;;;;;;;8.37;5.40;;;13.50;95.30;;;;;;4907499;29;20519;-77
2022/09/28 05:42:52;;;;;;;5.37;4.87;;;13.50;95.30;;;;;;4919398;29;20423;-77
2022/09/28 05:45:23;;;;;;;5.30;4.80;;;13.40;95.20;;;;;;4920052;29;20498;-76
2022/09/28 05:47:49;;;;;;;5.87;5.27;;;13.50;95.30;;;;;;4918978;29;20988;-77
2022/09/28 05:50:18;;;;;;;6.20;5.60;;;13.40;95.20;;;;;;4935629;29;20798;-77
2022/09/28 05:52:45;;;;;;;5.77;5.20;;;13.40;95.20;;;;;;4934524;29;20419;-77
2022/09/28 05:55:12;;;;;;;5.43;4.93;;;13.40;95.20;;;;;;4919763;29;20518;-77
2022/09/28 05:57:41;;;;;;;5.77;5.27;;;13.40;95.20;;;;;;4919906;29;20466;-77
2022/09/28 06:00:08;;;;;;;5.10;4.70;;;13.40;95.20;;;;;;4935236;29;20959;-76
2022/09/28 06:02:59;;;;;;;6.07;5.40;;;13.50;95.20;;;;;;4920875;29;20470;-77
2022/09/28 06:05:37;;;;;;;5.37;4.77;;;13.40;95.20;;;;;;4928734;29;20492;-77
2022/09/28 06:08:04;;;;;;;5.67;5.07;;;13.40;95.20;;;;;;4904235;29;20465;-77
2022/09/28 06:10:36;;;;;;;5.40;4.90;;;13.40;95.20;;;;;;4920071;29;20407;-77
2022/09/28 06:13:03;;;;;;;5.17;4.63;;;13.40;95.20;;;;;;4935523;29;20446;-77
2022/09/28 06:15:33;;;;;;;5.80;5.20;;;13.50;95.30;;;;;;4935335;29;20447;-77
2022/09/28 06:18:03;;;;;;;6.27;5.10;;;13.40;95.20;;;;;;4921371;29;20488;-76
2022/09/28 06:20:40;;;;;;;5.87;5.20;;;13.40;95.20;;;;;;4916424;29;20957;-77
2022/09/28 06:23:16;;;;;;;5.90;5.10;;;13.40;95.20;;;;;;4916308;29;20450;-77
2022/09/28 06:26:02;;;;;;;4.90;4.50;;;13.40;95.20;;;;;;4899575;29;20475;-76
2022/09/28 06:28:29;;;;;;;4.70;4.23;;;13.40;95.20;;;;;;4899824;29;20459;-76
2022/09/28 06:31:01;;;;;;;4.87;4.47;;;13.40;95.20;;;;;;4916209;29;20455;-76
2022/09/28 06:33:29;;;;;;;4.77;4.37;;;13.40;95.20;;;;;;4923505;29;20448;-76
2022/09/28 06:35:57;;;;;;;5.70;5.10;;;13.40;95.20;;;;;;4934815;29;20475;-76
2022/09/28 06:38:25;;;;;;;6.97;4.70;;;13.40;95.20;;;;;;4919299;29;20420;-76
2022/09/28 06:40:58;;;;;;;4.87;4.40;;;13.40;95.20;;;;;;4919071;29;20779;-76
2022/09/28 06:43:29;;;;;;;5.53;4.80;;;13.40;95.20;;;;;;4934934;29;20407;-76
2022/09/28 06:46:16;;;;;;;4.90;4.47;;;13.40;95.20;;;;;;4935738;29;20562;-76
2022/09/28 06:49:02;;;;;;;4.67;4.20;;;13.40;95.20;;;;;;4935024;29;20427;-76
2022/09/28 06:52:20;;;;;;;5.30;4.70;;;13.40;95.20;;;;;;4902428;29;20437;-76
2022/09/28 06:55:07;;;;;;;5.93;4.00;;;13.40;95.20;;;;;;4904361;29;20446;-76
2022/09/28 06:57:43;;;;;;;4.73;3.90;;;13.40;95.20;;;;;;4933625;29;20405;-76
2022/09/28 07:00:16;;;;;;;4.20;3.80;;;13.40;95.20;;;;;;4933418;29;20446;-76
2022/09/28 07:02:45;;;;;;;4.00;3.70;;;13.30;95.20;;;;;;4950595;29;20495;-76
2022/09/28 07:05:52;;;;;;;4.50;4.03;;;13.30;95.20;;;;;;4930508;29;20485;-76
2022/09/28 07:08:37;;;;;;;4.87;3.30;;;13.40;95.20;;;;;;4920918;29;20510;-76
2022/09/28 07:11:27;;;;;;;4.20;3.80;;;13.40;95.20;;;;;;4933556;29;20439;-76
2022/09/28 07:14:11;;;;;;;4.43;3.50;;;13.30;95.20;;;;;;4934724;29;20895;-76
2022/09/28 07:16:39;;;;;;;5.10;3.70;;;13.30;95.20;;;;;;4934224;29;20499;-76
2022/09/28 07:19:05;;;;;;;3.47;3.17;;;13.40;95.20;;;;;;4934426;29;20407;-76
2022/09/28 07:21:31;;;;;;;4.00;2.90;;;13.30;95.20;;;;;;4934626;29;20992;-76
2022/09/28 07:24:02;;;;;;;6.00;3.03;;;13.40;95.20;;;;;;4934237;29;20478;-76
2022/09/28 07:26:58;;;;;;;3.47;3.17;;;13.30;95.20;;;;;;4921157;29;20478;-76
2022/09/28 07:29:40;;;;;;;3.43;3.03;;;13.30;95.20;;;;;;4934314;29;20399;-76
2022/09/28 07:32:20;;;;;;;3.10;2.80;;;13.30;95.20;;;;;;4934169;29;20486;-76
2022/09/28 07:35:16;;;;;;;4.43;3.20;;;13.30;95.20;;;;;;4915315;29;20471;-75
2022/09/28 07:37:46;;;;;;;3.20;2.90;;;13.30;95.20;;;;;;4916469;29;20476;-75
2022/09/28 07:43:12;;;;;;;3.77;2.50;;;13.40;95.30;;;;;;4915261;29;20409;-76
2022/09/28 07:45:39;;;;;;;2.77;2.53;;;13.30;95.20;;;;;;4901159;29;20474;-76
2022/09/28 07:48:08;;;;;;;2.90;2.70;;;13.30;95.20;;;;;;4887896;29;20446;-76
2022/09/28 07:50:59;;;;;;;3.83;2.50;;;13.30;95.20;;;;;;4919469;29;20439;-76
2022/09/28 07:53:44;;;;;;;3.40;2.83;;;13.30;95.20;;;;;;4903483;29;20505;-76
2022/09/28 07:56:34;;;;;;;2.33;2.13;;;13.40;95.30;;;;;;4903381;29;20460;-76
2022/09/28 07:59:10;;;;;;;2.60;2.40;;;13.30;95.20;;;;;;4904748;29;20471;-76
2022/09/28 08:01:55;;;;;;;2.30;2.10;;;13.30;95.20;;;;;;4919101;29;20494;-75
2022/09/28 08:04:24;;;;;;;2.10;1.90;;;13.30;95.20;;;;;;4918880;29;20845;-76
2022/09/28 08:06:52;;;;;;;2.63;2.43;;;13.30;95.20;;;;;;4919725;29;20988;-76
2022/09/28 08:09:18;;;;;;;2.50;2.30;;;13.40;95.30;;;;;;4903167;29;20416;-76
2022/09/28 08:12:03;;;;;;;3.57;2.17;;;13.30;95.20;;;;;;4918792;29;20421;-76
2022/09/28 08:14:42;;;;;;;2.30;2.10;;;13.30;95.20;;;;;;4919690;29;20543;-76
2022/09/28 08:17:32;;;;;;;2.80;2.23;;;13.30;95.20;;;;;;4918366;29;20446;-76
2022/09/28 08:22:46;;;;;;;3.27;2.30;;;13.40;95.20;;;;;;4918429;29;20416;-76
2022/09/28 08:25:16;;;;;;;1.97;1.77;;;13.40;95.20;;;;;;4918272;29;20441;-76
2022/09/28 08:27:43;;;;;;;2.83;2.10;;;13.30;95.20;;;;;;4903496;29;20445;-76
2022/09/28 08:30:16;;;;;;;2.10;1.90;;;13.40;95.20;;;;;;4922434;29;20457;-76
2022/09/28 08:32:50;;;;;;;2.53;2.10;;;13.40;95.20;;;;;;4937654;29;20944;-76
2022/09/28 08:35:57;;;;;;;2.77;2.30;;;13.40;95.20;;;;;;4938039;29;20460;-76
2022/09/28 08:38:31;;;;;;;2.30;1.90;;;13.40;95.20;;;;;;4937648;29;20428;-75
2022/09/28 08:41:52;;;;;;;3.40;2.67;;;13.40;95.20;;;;;;4919374;29;20450;-76
2022/09/28 08:45:06;;;;;;;2.43;2.00;;;13.40;95.30;;;;;;4921355;29;20921;-76
2022/09/28 08:48:46;;;;;;;2.30;2.10;;;13.40;95.30;;;;;;4937390;29;20456;-76
2022/09/28 08:51:37;;;;;;;2.37;2.10;;;13.40;95.30;;;;;;4933194;29;20436;-76
2022/09/28 08:54:49;;;;;;;3.03;1.90;;;13.30;95.30;;;;;;4936912;29;20447;-75
2022/09/28 08:58:04;;;;;;;3.67;2.10;;;13.30;95.30;;;;;;4936822;29;20407;-77
2022/09/28 09:00:51;;;;;;;2.63;2.37;;;13.30;95.30;;;;;;4936672;29;20395;-77
2022/09/28 09:03:28;;;;;;;2.80;2.10;;;13.30;95.30;;;;;;4920984;29;20424;-76
2022/09/28 09:06:28;;;;;;;2.90;2.37;;;13.40;95.40;;;;;;4919930;29;20468;-76
2022/09/28 09:09:15;;;;;;;2.97;2.33;;;13.40;95.40;;;;;;4948832;28;20816;-77
2022/09/28 09:12:06;;;;;;;3.60;2.90;;;13.30;95.30;;;;;;4937600;29;20964;-76
2022/09/28 09:14:32;;;;;;;2.73;2.50;;;13.40;95.40;;;;;;4920586;29;20946;-77
2022/09/28 09:17:24;;;;;;;4.13;2.43;;;13.30;95.40;;;;;;4923158;29;20751;-76
2022/09/28 09:20:05;;;;;;;3.70;2.80;;;13.40;95.40;;;;;;4936906;29;20408;-77
2022/09/28 09:22:59;;;;;;;4.33;3.10;;;13.40;95.40;;;;;;4936304;29;21031;-77
2022/09/28 09:25:43;;;;;;;4.53;3.43;;;13.40;95.40;;;;;;4935940;29;20497;-76
2022/09/28 09:28:30;;;;;;;4.87;3.20;;;13.40;95.40;;;;;;4920454;29;20494;-76
2022/09/28 09:31:26;;;;;;;3.90;3.60;;;13.40;95.40;;;;;;4936104;29;20418;-77
2022/09/28 09:34:12;;;;;;;3.70;3.10;;;13.40;95.40;;;;;;4932857;29;20955;-76
2022/09/28 09:37:03;;;;;;;3.37;3.07;;;13.40;95.40;;;;;;4937079;29;20451;-76
2022/09/28 09:40:02;;;;;;;3.23;2.93;;;13.40;95.50;;;;;;4917074;29;20805;-76
2022/09/28 09:42:59;;;;;;;6.43;3.80;;;13.40;95.50;;;;;;4925677;29;21021;-77
2022/09/28 09:45:45;;;;;;;3.37;3.00;;;13.40;95.50;;;;;;4905444;29;20502;-76
2022/09/28 09:48:49;;;;;;;3.40;3.10;;;13.40;95.50;;;;;;4936281;29;20501;-76
2022/09/28 09:51:42;;;;;;;3.50;3.20;;;13.40;95.50;;;;;;4936753;29;20416;-74
2022/09/28 09:54:29;;;;;;;3.17;2.87;;;13.40;95.50;;;;;;4936393;29;20919;-76
2022/09/28 09:57:06;;;;;;;3.20;2.70;;;13.40;95.50;;;;;;4920643;29;20818;-76
2022/09/28 10:00:01;;;;;;;4.13;2.63;;;13.40;95.40;;;;;;4935800;29;20524;-77
2022/09/28 10:03:01;;;;;;;3.97;3.20;;;13.40;95.40;;;;;;4924405;29;20455;-76
2022/09/28 10:05:41;;;;;;;4.03;3.67;;;13.40;95.40;;;;;;4921420;29;20513;-76
2022/09/28 10:08:08;;;;;;;5.07;3.70;;;13.40;95.40;;;;;;4932043;29;20495;-76
2022/09/28 10:10:48;;;;;;;3.80;3.40;;;13.40;95.40;;;;;;4916384;29;20423;-77
2022/09/28 10:13:16;;;;;;;4.50;3.70;;;13.40;95.40;;;;;;4901162;29;20401;-76
2022/09/28 10:15:47;;;;;;;4.70;3.53;;;13.50;95.40;;;;;;4916193;29;20967;-76
2022/09/28 10:18:21;;;;;;;4.63;3.37;;;13.50;95.50;;;;;;4916170;29;20436;-76
2022/09/28 10:21:13;;;;;;;6.30;3.80;;;13.50;95.60;;;;;;4917567;29;20863;-76
2022/09/28 10:24:01;;;;;;;4.67;3.50;;;13.50;95.50;;;;;;4887457;29;20435;-80
2022/09/28 10:26:42;;;;;;;6.03;3.37;;;13.50;95.50;;;;;;4900078;29;20464;-76
2022/09/28 10:29:19;;;;;;;3.70;3.10;;;13.50;95.40;;;;;;4916468;29;20463;-77
2022/09/28 10:31:50;;;;;;;4.63;3.30;;;13.50;95.40;;;;;;4900689;29;20840;-77
2022/09/28 10:34:27;;;;;;;3.50;3.20;;;13.50;95.40;;;;;;4900025;29;20534;-77
2022/09/28 10:37:02;;;;;;;3.60;3.10;;;13.50;95.40;;;;;;4915126;29;20450;-76
2022/09/28 10:39:39;;;;;;;3.10;2.80;;;13.50;95.40;;;;;;4934080;29;20960;-76
2022/09/28 10:42:12;;;;;;;4.90;3.47;;;13.50;95.40;;;;;;4902702;29;20471;-77
2022/09/28 10:45:04;;;;;;;4.00;3.30;;;13.50;95.40;;;;;;4919060;29;20446;-76
2022/09/28 10:47:37;;;;;;;3.23;2.47;;;13.50;95.40;;;;;;4904307;29;20431;-77
2022/09/28 10:50:22;;;;;;;4.80;4.40;;;13.60;95.50;;;;;;4934786;29;21056;-77
2022/09/28 10:52:52;;;;;;;4.37;3.97;;;13.60;95.50;;;;;;4919145;29;20506;-77
2022/09/28 10:55:59;;;;;;;4.80;4.30;;;13.60;95.50;;;;;;4929493;29;20470;-77
2022/09/28 10:58:39;;;;;;;4.77;4.10;;;13.60;95.50;;;;;;4918623;29;20424;-77
2022/09/28 11:01:10;;;;;;;5.93;3.80;;;13.60;95.40;;;;;;4899434;29;20981;-77
2022/09/28 11:03:58;;;;;;;4.47;3.80;;;13.60;95.40;;;;;;4930369;29;20527;-76
2022/09/28 11:06:36;;;;;;;5.00;4.00;;;13.60;95.40;;;;;;4914917;29;20495;-77
2022/09/28 11:09:23;;;;;;;3.90;3.60;;;13.60;95.40;;;;;;4915027;29;20432;-76
2022/09/28 11:11:49;;;;;;;4.30;3.77;;;13.60;95.70;;;;;;4899640;29;20529;-76
2022/09/28 11:14:42;;;;;;;4.30;3.00;;;13.60;95.30;;;;;;4931128;29;20448;-77
2022/09/28 11:17:37;;;;;;;5.20;3.20;;;13.60;95.30;;;;;;4918457;29;20494;-77
2022/09/28 11:20:25;;;;;;;4.00;3.43;;;13.60;95.30;;;;;;4916149;29;20427;-75
2022/09/28 11:22:53;;;;;;;2.70;2.50;;;13.60;95.30;;;;;;4918490;29;20941;-77
2022/09/28 11:25:27;;;;;;;4.20;3.00;;;13.70;95.40;;;;;;4918013;29;20985;-77
2022/09/28 11:27:55;;;;;;;4.17;3.27;;;13.70;95.40;;;;;;4916525;29;20453;-77
2022/09/28 11:30:32;;;;;;;3.07;2.73;;;13.70;95.40;;;;;;4929218;29;20946;-77
2022/09/28 11:33:40;;;;;;;3.43;3.17;;;13.70;95.40;;;;;;4932355;29;20750;-77
2022/09/28 11:36:27;;;;;;;3.20;2.90;;;13.70;95.40;;;;;;4932056;29;20816;-77
2022/09/28 11:39:39;;;;;;;4.33;3.27;;;13.70;95.40;;;;;;4898240;29;20584;-77
2022/09/28 11:42:19;;;;;;;2.93;2.50;;;13.70;95.40;;;;;;4884207;29;20446;-77
2022/09/28 11:44:48;;;;;;;3.13;2.70;;;13.70;95.40;;;;;;4914491;29;20904;-77
2022/09/28 11:47:33;;;;;;;3.87;2.47;;;13.70;95.40;;;;;;4914674;29;20870;-77
2022/09/28 11:50:30;;;;;;;3.10;2.80;;;13.70;95.40;;;;;;4899006;29;21048;-77
2022/09/28 11:52:58;;;;;;;3.70;2.83;;;13.70;95.40;;;;;;4900158;29;20444;-77
2022/09/28 11:56:03;;;;;;;2.63;2.33;;;13.70;95.40;;;;;;4899170;29;21052;-77
2022/09/28 11:58:42;;;;;;;2.63;2.40;;;13.80;95.40;;;;;;4881663;29;20472;-77
2022/09/28 12:01:35;;;;;;;2.50;2.30;;;13.80;95.30;;;;;;4898017;29;20464;-75
2022/09/28 12:04:40;;;;;;;2.97;2.67;;;13.80;95.30;;;;;;4897887;29;20448;-76
2022/09/28 12:07:31;;;;;;;3.23;2.53;;;13.80;95.30;;;;;;4881204;29;20545;-77
2022/09/28 12:10:30;;;;;;;2.40;2.20;;;13.80;95.30;;;;;;4897106;29;20432;-77
2022/09/28 12:13:26;;;;;;;2.23;2.03;;;13.80;95.30;;;;;;4913754;29;20495;-77
2022/09/28 12:15:58;;;;;;;3.20;2.27;;;13.80;95.30;;;;;;4880437;29;20529;-77
2022/09/28 12:18:31;;;;;;;3.17;2.87;;;13.80;95.30;;;;;;4882338;29;20853;-76
2022/09/28 12:21:05;;;;;;;2.83;2.40;;;13.80;95.30;;;;;;4913626;29;20500;-77
2022/09/28 12:23:34;;;;;;;2.47;2.27;;;13.80;95.60;;;;;;4913155;29;20421;-77
2022/09/28 12:26:22;;;;;;;2.73;2.40;;;13.80;95.20;;;;;;4882114;29;20485;-76
2022/09/28 12:28:52;;;;;;;2.40;2.20;;;13.80;95.20;;;;;;4885443;29;20468;-77
2022/09/28 12:31:33;;;;;;;2.30;2.20;;;13.90;95.20;;;;;;4915927;29;20852;-77
2022/09/28 12:34:03;;;;;;;2.40;2.00;;;13.90;95.20;;;;;;4918306;29;20450;-77
2022/09/28 12:36:40;;;;;;;2.33;2.13;;;13.90;95.20;;;;;;4919130;29;20438;-77
2022/09/28 12:39:27;;;;;;;2.10;2.00;;;13.90;95.20;;;;;;4933995;29;20455;-77
2022/09/28 12:42:09;;;;;;;2.40;2.20;;;13.90;95.20;;;;;;4917323;29;20459;-77
2022/09/28 12:44:56;;;;;;;2.40;2.10;;;13.90;95.20;;;;;;4917894;29;20575;-77
2022/09/28 12:47:56;;;;;;;2.37;2.07;;;13.90;95.20;;;;;;4915323;29;20436;-76
2022/09/28 12:50:28;;;;;;;3.20;1.97;;;13.90;95.20;;;;;;4918346;29;20418;-77
2022/09/28 12:53:22;;;;;;;2.80;2.20;;;13.90;95.20;;;;;;4900464;29;20911;-76
2022/09/28 12:55:57;;;;;;;2.30;2.10;;;13.90;95.20;;;;;;4900132;29;20455;-77
2022/09/28 12:58:58;;;;;;;2.10;1.90;;;13.90;95.30;;;;;;4900363;29;20550;-77
2022/09/28 13:01:52;;;;;;;2.20;2.00;;;13.90;95.40;;;;;;4915276;29;20951;-75
2022/09/28 13:04:23;;;;;;;2.23;2.03;;;13.90;95.40;;;;;;4915763;29;20467;-77
2022/09/28 13:07:22;;;;;;;2.17;1.90;;;14.00;95.50;;;;;;4917150;29;20488;-76
2022/09/28 13:10:00;;;;;;;3.70;1.53;;;14.00;95.50;;;;;;4917421;29;20893;-76
2022/09/28 13:12:37;;;;;;;2.17;1.97;;;14.00;95.40;;;;;;4926680;29;20865;-77
2022/09/28 13:15:14;;;;;;;2.10;1.90;;;14.00;95.30;;;;;;4919575;29;20422;-76
2022/09/28 13:18:01;;;;;;;2.63;1.80;;;14.00;95.30;;;;;;4935698;29;20458;-77
2022/09/28 13:20:54;;;;;;;2.10;1.90;;;14.10;95.30;;;;;;4934327;29;20446;-76
2022/09/28 13:23:29;;;;;;;3.13;1.60;;;14.10;95.30;;;;;;4936304;29;20443;-76
2022/09/28 13:26:23;;;;;;;1.70;1.60;;;14.10;95.20;;;;;;4934862;29;21000;-75
2022/09/28 13:28:53;;;;;;;3.03;1.80;;;14.10;95.20;;;;;;4935617;29;20535;-76
2022/09/28 13:31:29;;;;;;;2.00;1.70;;;14.10;95.10;;;;;;4904581;29;20704;-75
2022/09/28 13:33:58;;;;;;;2.40;1.60;;;14.20;95.10;;;;;;4919808;29;20518;-76
2022/09/28 13:36:27;;;;;;;1.67;1.57;;;14.20;95.10;;;;;;4936461;29;20816;-75
2022/09/28 13:38:59;;;;;;;2.30;1.57;;;14.20;95.20;;;;;;4936013;29;20446;-75
2022/09/28 13:41:32;;;;;;;2.17;1.97;;;14.20;95.10;;;;;;4935024;29;20846;-75
2022/09/28 13:44:15;;;;;;;2.83;1.50;;;14.20;95.00;;;;;;4933801;29;20797;-76
2022/09/28 13:47:04;;;;;;;4.83;1.67;;;14.30;95.10;;;;;;4934663;29;20981;-76
2022/09/28 13:50:08;;;;;;;2.53;1.80;;;14.30;95.00;;;;;;4934784;29;20430;-76
2022/09/28 13:53:01;;;;;;;1.30;1.20;;;14.30;95.00;;;;;;4904232;29;20429;-76
2022/09/28 13:55:48;;;;;;;1.67;1.57;;;14.30;94.90;;;;;;4903487;29;20990;-76
2022/09/28 13:58:28;;;;;;;2.37;1.90;;;14.30;94.90;;;;;;4935572;29;20470;-76
2022/09/28 14:01:13;;;;;;;2.63;1.50;;;14.40;94.90;;;;;;4935187;29;20458;-76